Gwinnett County Detention Center

Sorted by Date of Admission

Public Information - 48 hour Docket Book

This document lists the most recent admissions to the Gwinnett County Detention Center This information is presented in Date order, beginning with the most recent admissions. Line items are by charge so you will see name and address information duplicated for each charge on an individual's booking. If the charge is blank the individual is in the booking process and has not had any charge(s) added yet. Bond amounts that are 0 or blank indicate that the individual has not been granted a bond on that individual charge. This data is live and constantly being updated. Each time you check the information, the data may be different. New inmates are constantly added, and you will find names and information will often change as inmate identities are verified and updated. I.E. if you run this report on two different occasions it will not be surprising for you to find differences in the two reports.
Admission Date Release Date Last Name First Name Middle Name Original Offender ID Offender ID Address Charge Bond Bond Type Arresting Agency Charges/Photo
02/08/2016 18:05WEATHINGTONSINNESSABRENEA9937161299371612 1117 WOODSONG PASS CT, LAWRENCEVILLE GA 30043$Snellville PoliceCharges
02/08/2016 17:48TANSILDANIELLECAMILIA9952420699524206 1537 PLANTERS RIDGE LN, ALPHARETTA GA 30004$Gwinnett County PoliceCharges
02/08/2016 17:40PRATHERBRIANKEVIN9106455091064550 2842 BETHANY CHURCH ROAD, SNELLVILLE GA $Auburn PDCharges
02/08/2016 17:38BRINGASJONATHAN9953807899538078 , $Gwinnett County PoliceCharges
02/08/2016 17:30HERNANDEZRICARDOLEON9922045499220454 911 BRIGHTON DR, LAWRENCEVILLE GA 30043$Gwinnett County PoliceCharges
02/08/2016 17:20HAMMONDERIC9952370299523702 307 AMELIA GARDEN WAY, LAWRENCEVILLE GA 30045Violation of Probation$0NBLawrenceville PoliceCharges
02/08/2016 17:20HAMMONDERIC9952370299523702 307 AMELIA GARDEN WAY, LAWRENCEVILLE GA 30045HOLD FOR OTHER AGENCY$0NBLawrenceville PoliceCharges
02/08/2016 17:09PORTERCHARLESLYNELL9953807799538077 , $Snellville PoliceCharges
02/08/2016 16:41DANIELNORRISLEE9953774199537741 412 RAVINIA WAY, LAWRENCEVILLE GA 30044$Gwinnett County PoliceCharges
02/08/2016 16:30PATTERSONJAREDBOYD9912465299124660 1373 GA. HWY 198, BALDWIN GA 30511* DRIVING WHILE LIC SUSP OR REVOKED$705SBGwinnett County SheriffCharges
02/08/2016 16:19CARRCHANISHAFONTE9904249699042496 8140 ENGLEWOOD TRL, RIVERDALE GA 30274$Gwinnett County SheriffCharges
02/08/2016 16:11ENGLANDRUSSELLCLAYTON9953807699538076 , $Gwinnett County PoliceCharges
02/08/2016 16:00TAYLORHERBERTLEE9953736499537364 2935 ROSEBUD RD APT 605, LOGANVILLE GA 30052$Snellville PoliceCharges
02/08/2016 15:25SHULERDEVOHNDESHON9953807599538075 , $Snellville PoliceCharges
02/08/2016 14:58HUHLYDIAYESOR9953807499538074 2844 WOODSTAR CT, DULUTH GA 30096THEFT BY SHOPLIFTING$355SBSuwanee PoliceCharges
02/08/2016 14:27SMITHURALBENJAMIN9953267799532677 841 LANGLEY FARMS DR, LOGANVILLE GA 30052*POSS WEAPON SCHOOL PROPERTY$1300SBGwinnett County Public Schools PoliceCharges
02/08/2016 14:19MOREMANSTEPHANLAMONT9921268099212680 1761 WINNER CIR, LAWRENCEVILLE GA 30043FAILURE TO APPEAR$0NBGwinnett County SheriffCharges
02/08/2016 14:19MOREMANSTEPHANLAMONT9921268099212680 1761 WINNER CIR, LAWRENCEVILLE GA 30043HOLD FOR OTHER AGENCY$0NBGwinnett County SheriffCharges
02/08/2016 14:18PRICHERMATHEWTHOMAS9952531999525319 3187 BAILEY RD, DACULA GA 30019* VIOLATION OF PROBATION$0NBGwinnett County SheriffCharges
02/08/2016 14:12YARBOROUGHJONATHANDUANE9903683799036886 2742 CRESTWORTH LANE, BUFORD GA 30519HOLD FOR COURT$0NBGwinnett County SheriffCharges
02/08/2016 14:07WASHINGTONDWIGHT9953807299538072 4928 BRYANT DR, SNELLVILLE GA 30039OPERATING VEH WITH SUSP/CANC/REV REGISTR$705SBGwinnett County SheriffCharges
02/08/2016 14:07WASHINGTONDWIGHT9953807299538072 4928 BRYANT DR, SNELLVILLE GA 30039HOLD FOR OTHER AGENCY$0NBGwinnett County SheriffCharges
02/08/2016 14:07WASHINGTONDWIGHT9953807299538072 4928 BRYANT DR, SNELLVILLE GA 30039* DRIVING WHILE LIC SUSP OR REVOKED$705SBGwinnett County SheriffCharges
02/08/2016 14:07WASHINGTONDWIGHT9953807299538072 4928 BRYANT DR, SNELLVILLE GA 30039FAILURE TO MAINTAIN INSURANCE$299SBGwinnett County SheriffCharges
02/08/2016 13:5802/08/2016 15:23BRYANTDEBRAFRANCO9953807199538071 380 RADNER RUN, LAWRENCEVILLE GA 30043FAILURE TO APPEAR$348CBGwinnett County SheriffCharges
02/08/2016 13:49HOLMESJUAWANACOZETTA9946375699463756 2363 CROSS ST NW, ATLANTA GA 30318FAILURE TO APPEAR$1129CBGwinnett County SheriffCharges
02/08/2016 13:44CHANDLERLINDSAYREBECCA9952702899527028 575 TRIBBLE CREEK DR, GRAYSON GA 30017* VIOLATION OF PROBATION$0NBGwinnett County PoliceCharges
02/08/2016 13:28CORFAHFIDELMAMDEE SUMO9952282099522820 1345 SHELTON WAY, LAWRENCEVILLE GA 30043* VIOLATION OF PROBATION$0NBGwinnett County SheriffCharges
02/08/2016 13:28CORFAHFIDELMAMDEE SUMO9952282099522820 1345 SHELTON WAY, LAWRENCEVILLE GA 30043* VIOLATION OF PROBATION$0NBGwinnett County SheriffCharges
02/08/2016 13:28CORFAHFIDELMAMDEE SUMO9952282099522820 1345 SHELTON WAY, LAWRENCEVILLE GA 30043*NO DRIVERS LICENSE$2400SBGwinnett County SheriffCharges
02/08/2016 13:28CORFAHFIDELMAMDEE SUMO9952282099522820 1345 SHELTON WAY, LAWRENCEVILLE GA 30043PASSING SCHOOL BUS LOADING/UNLOADING$2400SBGwinnett County SheriffCharges
02/08/2016 13:28CORFAHFIDELMAMDEE SUMO9952282099522820 1345 SHELTON WAY, LAWRENCEVILLE GA 30043* GIVING FALSE NAME OR INFORMATION$2400SBGwinnett County SheriffCharges
02/08/2016 13:28CORFAHFIDELMAMDEE SUMO9952282099522820 1345 SHELTON WAY, LAWRENCEVILLE GA 30043FAILURE TO OBEY STOP SIGN$2400SBGwinnett County SheriffCharges
02/08/2016 13:28CORFAHFIDELMAMDEE SUMO9952282099522820 1345 SHELTON WAY, LAWRENCEVILLE GA 30043* GIVING FALSE NAME OR INFORMATION$2400SBGwinnett County SheriffCharges
02/08/2016 13:28CORFAHFIDELMAMDEE SUMO9952282099522820 1345 SHELTON WAY, LAWRENCEVILLE GA 30043* FLEEING OR ATTEMPTING TO ELUDE$2400SBGwinnett County SheriffCharges
02/08/2016 13:28CORFAHFIDELMAMDEE SUMO9952282099522820 1345 SHELTON WAY, LAWRENCEVILLE GA 30043* DRIVING WHILE LIC SUSP OR REVOKED$2400SBGwinnett County SheriffCharges
02/08/2016 13:18WITSELLYVONNE9953807099538070 3931 SUMMER PL, SNELLVILLE GA 30039@ * THEFT BY TAKING$1300SBGwinnett County PoliceCharges
02/08/2016 13:06JORDANANTOINEJAMAR9918338799183387 235 CEDARHURST RD, LAWRENCEVILLE GA 30045* VIOLATION OF PROBATION$0NBGwinnett County SheriffCharges
02/08/2016 12:56BENNETTJOHN9951794699517946 5687 HERON COURT APT A, NORCROSS GA 30071FAILURE TO APPEAR$0NBNorcross PoliceCharges
02/08/2016 12:56BENNETTJOHN9951794699517946 5687 HERON COURT APT A, NORCROSS GA 30071@ * ROBBERY$16700SBNorcross PoliceCharges
02/08/2016 12:18JOHNSONDEMETRIANRAPHEAL9904662699046626 1159 ALYSUM AVE, LAWRENCEVILLE GA 30045HOLD FOR OTHER AGENCY$0NBGwinnett County SheriffCharges
02/08/2016 11:39ARNOLDCOREYDEWAN9953806999538069 2542 MCAFEE RD, DECATUR GA 30032HOLD FOR COURT$0NBGwinnett County SheriffCharges
02/08/2016 11:37GOFFCHADANTHONY9949169899491698 1413 HEDELBERG LANE, NORCROSS GA 30093FAILURE TO APPEAR$390CBGwinnett County SheriffCharges
02/08/2016 11:33ARTEAGAJOSEMARIA9907350899073508APT 24 6865 BEBOUT DR, NORCROSS GA 30093FAILURE TO APPEAR$0NBGwinnett County SheriffCharges
02/08/2016 11:32WATKINSOTHELLOREQUEAL9945566499455664 332 PONCE DE LEON AVE NE, ATLANTA GA 30308HOLD FOR COURT$0NBGwinnett County SheriffCharges
02/08/2016 11:26LAVENDERDARYLDONNELL9900205799080498 3246 WINDSCAPE VILLAGE LANE APT C, NORCROSS GA 30093* VIOLATION OF PROBATION$0NBProbationCharges
02/08/2016 11:26LAVENDERDARYLDONNELL9900205799080498 3246 WINDSCAPE VILLAGE LANE APT C, NORCROSS GA 30093* VIOLATION OF PROBATION$0NBProbationCharges
02/08/2016 11:26LAVENDERDARYLDONNELL9900205799080498 3246 WINDSCAPE VILLAGE LANE APT C, NORCROSS GA 30093* VIOLATION OF PROBATION$0NBProbationCharges
02/08/2016 11:2002/08/2016 13:31PEREZDANDYAMIR9953806899538068 140 SCENIC VALLEY PLACE APT 31, DALTON GA 30270* DRIVING WHILE LIC SUSP OR REVOKED$0NBGwinnett County SheriffCharges
02/08/2016 11:08GRAHAMDERONLAMAR9953806799538067 1303 WINTERS CREEK DR, ATLANTA GA 30360FAILURE TO OBEY TRAFFIC CONTROL DEVICE$210SBNorcross PoliceCharges
02/08/2016 11:08GRAHAMDERONLAMAR9953806799538067 1303 WINTERS CREEK DR, ATLANTA GA 30360HOLD FOR OTHER AGENCY$0NBNorcross PoliceCharges
02/08/2016 10:57WHITTEN ELCOCKRAYVONDAY JORE9952348399523483 3208 HARTFORD RUN, BUFORD GA 30518HOLD FOR OTHER AGENCY$0NBGwinnett County PoliceCharges
02/08/2016 10:4409/11/2013 11:23PALLOTTANICOLEROSE9935056299350562 1020 BRIGHTON LN, BOGART GA 30622@ * AGGRAVATED ASSAULT$0NBGwinnett County SheriffCharges
02/08/2016 10:4409/11/2013 11:23PALLOTTANICOLEROSE9935056299350562 1020 BRIGHTON LN, BOGART GA 30622@ * KIDNAPPING$11200SBGwinnett County SheriffCharges
02/08/2016 10:4409/11/2013 11:23PALLOTTANICOLEROSE9935056299350562 1020 BRIGHTON LN, BOGART GA 30622@ * ARMED ROBBERY$16700SBGwinnett County SheriffCharges
02/08/2016 10:4409/11/2013 11:23PALLOTTANICOLEROSE9935056299350562 1020 BRIGHTON LN, BOGART GA 30622* VIOLATION OF PROBATION$5700SBGwinnett County SheriffCharges
02/08/2016 10:4409/11/2013 11:23PALLOTTANICOLEROSE9935056299350562 1020 BRIGHTON LN, BOGART GA 30622@ * KIDNAPPING$11200SBGwinnett County SheriffCharges
02/08/2016 10:4409/11/2013 11:23PALLOTTANICOLEROSE9935056299350562 1020 BRIGHTON LN, BOGART GA 30622HOLD FOR OTHER AGENCY$0NBGwinnett County SheriffCharges
02/08/2016 10:4409/11/2013 11:23PALLOTTANICOLEROSE9935056299350562 1020 BRIGHTON LN, BOGART GA 30622* VIOLATION OF PROBATION$5700SBGwinnett County SheriffCharges
02/08/2016 10:4409/11/2013 11:23PALLOTTANICOLEROSE9935056299350562 1020 BRIGHTON LN, BOGART GA 30622@ * ARMED ROBBERY$16700SBGwinnett County SheriffCharges
02/08/2016 10:4402/08/2016 13:12PALLOTTANICOLEROSE9935056299350562 1020 BRIGHTON LN, BOGART GA 30622@ * KIDNAPPING$11200SBGwinnett County SheriffCharges
02/08/2016 10:4402/08/2016 13:12PALLOTTANICOLEROSE9935056299350562 1020 BRIGHTON LN, BOGART GA 30622@ * ARMED ROBBERY$16700SBGwinnett County SheriffCharges
02/08/2016 10:4402/08/2016 13:12PALLOTTANICOLEROSE9935056299350562 1020 BRIGHTON LN, BOGART GA 30622@ * KIDNAPPING$11200SBGwinnett County SheriffCharges
02/08/2016 10:4402/08/2016 13:12PALLOTTANICOLEROSE9935056299350562 1020 BRIGHTON LN, BOGART GA 30622* VIOLATION OF PROBATION$5700SBGwinnett County SheriffCharges
02/08/2016 10:4402/08/2016 13:12PALLOTTANICOLEROSE9935056299350562 1020 BRIGHTON LN, BOGART GA 30622HOLD FOR OTHER AGENCY$0NBGwinnett County SheriffCharges
02/08/2016 10:4402/08/2016 13:12PALLOTTANICOLEROSE9935056299350562 1020 BRIGHTON LN, BOGART GA 30622* VIOLATION OF PROBATION$5700SBGwinnett County SheriffCharges
02/08/2016 10:4402/08/2016 13:12PALLOTTANICOLEROSE9935056299350562 1020 BRIGHTON LN, BOGART GA 30622@ * ARMED ROBBERY$16700SBGwinnett County SheriffCharges
02/08/2016 10:4402/08/2016 13:12PALLOTTANICOLEROSE9935056299350562 1020 BRIGHTON LN, BOGART GA 30622@ * AGGRAVATED ASSAULT$0NBGwinnett County SheriffCharges
02/08/2016 10:37GEORGENICHOLASALLEN9949602199496021 831 CRUISER RUN, LAWRENCEVILLE GA 30045* VIOLATION OF PROBATION$0NBGwinnett County SheriffCharges
02/08/2016 10:3111/14/2013 11:17PALLOTTANICOLEROSE9935056299350562 4719 SNAPCREEK WAY, DECATUR GA 30035Violation of Probation$0NBGwinnett County SheriffCharges
02/08/2016 10:3111/14/2013 11:17PALLOTTANICOLEROSE9935056299350562 4719 SNAPCREEK WAY, DECATUR GA 30035@ * ARMED ROBBERY$0NBGwinnett County SheriffCharges
02/08/2016 10:3111/20/2015 18:38PALLOTTANICOLEROSE9935056299350562 4719 SNAPCREEK WAY, DECATUR GA 30035Violation of Probation$0NBGwinnett County SheriffCharges
02/08/2016 10:3102/08/2016 10:42PALLOTTANICOLEROSE9935056299350562 4719 SNAPCREEK WAY, DECATUR GA 30035Violation of Probation$0NBGwinnett County SheriffCharges
02/08/2016 10:3102/08/2016 10:42PALLOTTANICOLEROSE9935056299350562 4719 SNAPCREEK WAY, DECATUR GA 30035@ * ARMED ROBBERY$0NBGwinnett County SheriffCharges
02/08/2016 10:3111/20/2015 18:38PALLOTTANICOLEROSE9935056299350562 4719 SNAPCREEK WAY, DECATUR GA 30035@ * ARMED ROBBERY$0NBGwinnett County SheriffCharges
02/08/2016 10:25STILLEYSKYLARDEAN9949369699493696 5490 LAKEVIEW DR, AUSTELL GA 30106* VIOLATION OF PROBATION$0NBProbationCharges
02/08/2016 10:23STOCKERTDAVIDPAUL9953806699538066 1421 KINGS RIDGE DR, NORCROSS GA 30093@ * BATTERY$1300SBGwinnett County PoliceCharges
02/08/2016 10:15GLENNMADISONLAURA9951431299514312 1421 KINGS RIDGE DR, NORCROSS GA 30093Failure to Appear$612.5CBGwinnett County PoliceCharges
02/08/2016 10:15GLENNMADISONLAURA9951431299514312 1421 KINGS RIDGE DR, NORCROSS GA 30093@ * BATTERY$1300SBGwinnett County PoliceCharges
02/08/2016 10:0902/08/2016 15:08MORAN ESCOBAREDUARDOA9953806599538065 , $Lilburn PoliceCharges
02/08/2016 09:45RAMZANALISARADENISE9907090699070906 5267 ROSESTONE DR, LILBURN GA 30047* OBSTRUCTION LAW ENFORCEMENT OFFICER$1300SBLilburn PoliceCharges
02/08/2016 09:45RAMZANALISARADENISE9907090699070906 5267 ROSESTONE DR, LILBURN GA 30047FAILURE TO APPEAR$293CBLilburn PoliceCharges
02/08/2016 09:36AVILES-DAMAZORAUL9953806499538064 2035 IDLEWOOD RD APT 13, TUCKER GA 30084EXPIRED OR NO LICENSE PLATE OR DECAL$152SBGA Dept. of Motor Vehicle SafetyCharges
02/08/2016 09:36AVILES-DAMAZORAUL9953806499538064 2035 IDLEWOOD RD APT 13, TUCKER GA 30084FAILURE TO MAINTAIN INSURANCE$299SBGA Dept. of Motor Vehicle SafetyCharges
02/08/2016 09:36AVILES-DAMAZORAUL9953806499538064 2035 IDLEWOOD RD APT 13, TUCKER GA 30084*NO DRIVERS LICENSE$705SBGA Dept. of Motor Vehicle SafetyCharges
02/08/2016 09:31MORALESMIGUELALEJANDRO9953806399538063 438 FIRST ST, LAWRENCEVILLE GA 30046FAILURE TO APPEAR$196CBLilburn PoliceCharges
02/08/2016 09:31MORALESMIGUELALEJANDRO9953806399538063 438 FIRST ST, LAWRENCEVILLE GA 30046SPEEDING$183SBLilburn PoliceCharges
02/08/2016 09:31MORALESMIGUELALEJANDRO9953806399538063 438 FIRST ST, LAWRENCEVILLE GA 30046IMPROPER TURNING$155SBLilburn PoliceCharges
02/08/2016 09:31MORALESMIGUELALEJANDRO9953806399538063 438 FIRST ST, LAWRENCEVILLE GA 30046OPERATING W/OUT VALID COUNTY DECAL$50SBLilburn PoliceCharges
02/08/2016 09:31MORALESMIGUELALEJANDRO9953806399538063 438 FIRST ST, LAWRENCEVILLE GA 30046*DRIVING WHILE LIC SUSP/REV$715SBLilburn PoliceCharges
02/08/2016 09:31MORALESMIGUELALEJANDRO9953806399538063 438 FIRST ST, LAWRENCEVILLE GA 30046OUT OF STATE LIC CHANGED W/I 30 DAYS$155SBLilburn PoliceCharges
02/08/2016 09:31MORALESMIGUELALEJANDRO9953806399538063 438 FIRST ST, LAWRENCEVILLE GA 30046RECKLESS DRIVING$435SBLilburn PoliceCharges
02/08/2016 09:29MORAN-ESCOBAREDUARDO9952618599526185 5675 ROSWELL RD APT 36B, ATLANTA GA 30342$Lilburn PoliceCharges
02/08/2016 08:57DAVISHARLEYCHADWICK9931864999318649 5490 LAKEVIEW DR, AUSTELL GA 30106* VIOLATION OF PROBATION$0NBGwinnett County SheriffCharges
02/08/2016 08:5402/08/2016 16:32HICKSDAVIDJOHN9953806299538062 4132 SUWANEE MILL DR, BUFORD GA 30518SPEEDING$180CBGwinnett County PoliceCharges
02/08/2016 08:5402/08/2016 16:32HICKSDAVIDJOHN9953806299538062 4132 SUWANEE MILL DR, BUFORD GA 30518FAILURE TO APPEAR$196CBGwinnett County PoliceCharges
02/08/2016 08:28PELAYOVINCENTNMN9106336191063361 3162 CLAIBORNE DR, DULUTH GA 30096@ * RAPE$0NBPrisoner Transport ServicesCharges
02/08/2016 08:28PEREZDELFINORODRIGUEZ9908435799084357 4907 OGEECHEE RD LOT 37, SAVANNAH GA 31405* VIOLATION OF PROBATION$0NBPrisoner Transport ServicesCharges
02/08/2016 08:28PEREZDELFINORODRIGUEZ9908435799084357 4907 OGEECHEE RD LOT 37, SAVANNAH GA 31405HOLD FOR IMMIGRATION$0NBPrisoner Transport ServicesCharges
02/08/2016 07:15RAWLSMEGANLYNN9937841399378413 2379 GUM CREEK CHURCH RD, LOGANVILLE GA 30052*VGCSA OF C/S$10100SBGwinnett County PoliceCharges
02/08/2016 07:15RAWLSMEGANLYNN9937841399378413 2379 GUM CREEK CHURCH RD, LOGANVILLE GA 30052*POSS AND USE OF DRUG RELATED$1300SBGwinnett County PoliceCharges
02/08/2016 06:48JOHNSONHAROLDIII9950463399504633 100 LESLIE OAKS DR, APT. 9202, LITHONIA GA 30058FAILURE TO APPEAR$551CBSnellville PoliceCharges
02/08/2016 06:48JOHNSONHAROLDIII9950463399504633 100 LESLIE OAKS DR, APT. 9202, LITHONIA GA 30058Violation of Probation$0NBSnellville PoliceCharges
02/08/2016 06:48JOHNSONHAROLDIII9950463399504633 100 LESLIE OAKS DR, APT. 9202, LITHONIA GA 30058SPEEDING 15 - 18 OVER$164SBSnellville PoliceCharges
02/08/2016 06:48JOHNSONHAROLDIII9950463399504633 100 LESLIE OAKS DR, APT. 9202, LITHONIA GA 30058EXPIRED TAG$150SBSnellville PoliceCharges
02/08/2016 06:48JOHNSONHAROLDIII9950463399504633 100 LESLIE OAKS DR, APT. 9202, LITHONIA GA 30058*SUSPENDED LICENSE$1176.25SBSnellville PoliceCharges
02/08/2016 05:32DARROUGHMARQUENTISRASHAAN9952868999528689 3547 PEACHTREE CORNERS CIR APT B, PEACHTREE CORNERS GA 30092HOLD FOR OTHER AGENCY$0NBGwinnett County PoliceCharges
02/08/2016 05:32DARROUGHMARQUENTISRASHAAN9952868999528689 3547 PEACHTREE CORNERS CIR APT B, PEACHTREE CORNERS GA 30092Violation of Probation$0NBGwinnett County PoliceCharges
02/08/2016 05:1502/08/2016 13:09HOLMESCINDYMICHELLE9953806199538061 2019 LEVEL RD, CLAXTON GA 30417TAG LIGHT VISIBLE 50 FT.$96SBGwinnett County PoliceCharges
02/08/2016 05:1502/08/2016 13:09HOLMESCINDYMICHELLE9953806199538061 2019 LEVEL RD, CLAXTON GA 30417* DRIVING WHILE LICENSE WITHDRAWN$705SBGwinnett County PoliceCharges
02/08/2016 05:1502/08/2016 13:09HOLMESCINDYMICHELLE9953806199538061 2019 LEVEL RD, CLAXTON GA 30417*POSS AND USE OF DRUG RELATED$650SBGwinnett County PoliceCharges
02/08/2016 05:1502/08/2016 13:09HOLMESCINDYMICHELLE9953806199538061 2019 LEVEL RD, CLAXTON GA 30417*LESS THAN AN OZ OF MARIJ.$650SBGwinnett County PoliceCharges
02/08/2016 03:45WILLIAMSONCEDRICDUANE9943952399439523 6250 HOLCOMBE WAY, NORCROSS GA 30093HOLD FOR OTHER AGENCY$0NBGwinnett County PoliceCharges
02/08/2016 02:2702/08/2016 12:31BRITOVERONICALORENA9953806099538060 302 PARK COLONY DRIVE, NORCROSS GA 30093@ * BATTERY$2950SBGwinnett County PoliceCharges
02/08/2016 02:2202/08/2016 08:52SHOCKLEYRAVEENNICOLE9953805999538059456 490 GLENN ST SW, ATLANTA GA 30312TAIL LIGHT OVER 60"$68SBGwinnett County PoliceCharges
02/08/2016 02:2202/08/2016 08:52SHOCKLEYRAVEENNICOLE9953805999538059456 490 GLENN ST SW, ATLANTA GA 30312* DRIVING WHILE LIC SUSP OR REVOKED$705SBGwinnett County PoliceCharges
02/08/2016 01:5302/08/2016 05:07MOSUNGBUM9943278799432787 2998 GREY MOSS PASS, DULUTH GA 30096FAILURE TO OBEY TRAFFIC DEVICE$56CBGwinnett County PoliceCharges
02/08/2016 01:5302/08/2016 05:07MOSUNGBUM9943278799432787 2998 GREY MOSS PASS, DULUTH GA 30096* DUI - DRUGS/ALCOHOL$2006CBGwinnett County PoliceCharges
02/08/2016 00:3802/08/2016 06:16PRATHERRICHARDMANNING9953805899538058 3405 POPLAR DRIVE, LAWRENCEVILLE GA 30044OPERATING W/OUT VALID COUNTY DECAL$50SBLilburn PoliceCharges
02/08/2016 00:3802/08/2016 06:16PRATHERRICHARDMANNING9953805899538058 3405 POPLAR DRIVE, LAWRENCEVILLE GA 30044*DUI--ALCOHOL$1266SBLilburn PoliceCharges
02/08/2016 00:3802/08/2016 06:16PRATHERRICHARDMANNING9953805899538058 3405 POPLAR DRIVE, LAWRENCEVILLE GA 30044DISREGARD TRAFFIC CONTROL DEVICE$155SBLilburn PoliceCharges
02/08/2016 00:3802/08/2016 06:16PRATHERRICHARDMANNING9953805899538058 3405 POPLAR DRIVE, LAWRENCEVILLE GA 30044POSS MARIJUANA < 1OZ$780SBLilburn PoliceCharges
02/08/2016 00:2302/08/2016 06:49BOGLEPAULANTHONY9953805799538057 6999 ROCKBRIDGE RD, STONE MOUNTAIN GA 30087* ENDANGERING SECURITY INTEREST$2400SBGwinnett County PoliceCharges
02/08/2016 00:1302/08/2016 04:21THIGPENALAINAMARIE9953805699538056 4207 WALDEN CROSSING DRIVE, CANTON GA 30115@ * SIMPLE BATTERY$1300SBSnellville PoliceCharges
02/08/2016 00:0302/08/2016 02:57KELLEYSUZANNEPERKINS9953805599538055 4205 CHASTAIN DRIVE, ATLANTA GA 30342*DUI - ALCOHOL$2006SBGwinnett County PoliceCharges
02/08/2016 00:0302/08/2016 02:57KELLEYSUZANNEPERKINS9953805599538055 4205 CHASTAIN DRIVE, ATLANTA GA 30342FAIL TO CHANGE ADDRESS/NAME ON DL$96SBGwinnett County PoliceCharges
02/07/2016 23:4302/08/2016 08:17LOPEZLUCIOORLANDO9953805499538054 205 SASNETT DR, LAWRENCEVILLE GA 30046@ * BATTERY$2400CBLawrenceville PoliceCharges
02/07/2016 22:5902/08/2016 02:57EDOUARDSARAHDIENNE9938300299383002 503 ALCOVY PARK DR, LAWRENCEVILLE GA 30045CONTEMPT OF COURT$40FINorcross PoliceCharges
02/07/2016 22:5802/08/2016 14:19CONLEYRICKYSHAWN9953271799532717 7049 JIMMY CARTER BLVD, NORCROSS GA 30092HOLD FOR OTHER AGENCY$0NBGwinnett County PoliceCharges
02/07/2016 22:5402/08/2016 11:41CALVERTHOLLYLYNN9947435699474356 572 TANNERS LN, BETHLEHEM GA 30620*VGCSA OF C/S$3500SBLawrenceville PoliceCharges
02/07/2016 22:5402/08/2016 11:41CALVERTHOLLYLYNN9947435699474356 572 TANNERS LN, BETHLEHEM GA 30620FTA BENCH WARRANT$481CBLawrenceville PoliceCharges
02/07/2016 22:17AJCALON-CUMATZERICKAYESSENIA9952339699523396 804WYNHOLLOW TRACE, NORCROSS GA 30071PROBATION VIOLATION$0NBNorcross PoliceCharges
02/07/2016 22:10KEYELIJAHLAMAR9943078399430783 2619 MAJESTIC CIRCLE, DACULA GA 30019@ * AGGRAVATED ASSAULT$0NBGwinnett County PoliceCharges
02/07/2016 22:1002/08/2016 05:59GRAHAMERICANTHONY9953805399538053 4590 BRIDLE PAINT PKWY, SNELLVILLE GA 30039@ * BATTERY$1850SBGwinnett County PoliceCharges
02/07/2016 21:59KEYCLAUDETTEARIEL9953805299538052` 2619 MAJESTIC CIRCLE, DACULA GA 30018@ * AGGRAVATED ASSAULT$3500SBGwinnett County PoliceCharges
02/07/2016 21:00HOFFMAND'ASIASTARR MARIE9953805199538051 3045 HEATHER STONE WAY, LAWRENCEVILLE GA 30043*BURGLARY 1ST DEGREE$6800SBGwinnett County PoliceCharges
02/07/2016 20:25GARRENHOLLYR9953805099538050 6650 BAY CIR, NORCROSS GA 30093PEDESTRIAN SOLICITING BUSINESS$2400SBGwinnett County PoliceCharges
02/07/2016 20:25GARRENHOLLYR9953805099538050 6650 BAY CIR, NORCROSS GA 30093PEDESTRIAN SOLICITING BUSINESS$2400SBGwinnett County PoliceCharges
02/07/2016 20:2202/08/2016 16:49WALDENJUSTINWILLIAM9952274499522744 2050 CALMWATER CT, SUWANEE GA 30024* DRIVING WHILE LICENSE WITHDRAWN$705SBGwinnett County PoliceCharges
02/07/2016 20:1102/08/2016 15:29MEEKSCODYEVAN9953752399537523 3220 RIDGE RD, BUFORD GA 30519@ * AGGRAVATED ASSAULT$11200SBGwinnett County PoliceCharges
02/07/2016 20:0702/08/2016 00:41MITCHEMMARLINQUINN9953804999538049 2344 EDGE CT, DULUTH GA 30096Failure to Appear$395CBGwinnett County SheriffCharges
02/07/2016 19:37KOBRESTHOMASSCOTT9106177891061778 1272 HARMONY GROVE CHURCH RD, AUBURN GA 30011Violation of Probation$0NBGwinnett County PoliceCharges
02/07/2016 19:37KOBRESTHOMASSCOTT9106177891061778 1272 HARMONY GROVE CHURCH RD, AUBURN GA 30011FTA BENCH WARRANT$333CBGwinnett County PoliceCharges
02/07/2016 19:37KOBRESTHOMASSCOTT9106177891061778 1272 HARMONY GROVE CHURCH RD, AUBURN GA 30011HOLD FOR OTHER AGENCY$0NBGwinnett County PoliceCharges
02/07/2016 19:3402/07/2016 22:33OHJUNSUK9953804799538047 3202 CLAUDIA PL, NORCROSS GA 30092POSSESSION OF LESS THAN OZ MARIJUANA$585CBGwinnett County PoliceCharges
02/07/2016 19:1702/07/2016 22:47MCDOWELLARENELEE9953804599538045 3901 NORTHSIDE DR APT 5H, MACON GA 30210OPERATING VEH WITH SUSP/CANC/REV REGISTR$705SBGwinnett County SheriffCharges
02/07/2016 19:1702/07/2016 22:47MCDOWELLARENELEE9953804599538045 3901 NORTHSIDE DR APT 5H, MACON GA 30210* DRIVING WHILE LIC SUSP OR REVOKED$705SBGwinnett County SheriffCharges
02/07/2016 19:1302/07/2016 23:09FLORES-VENTURABORISARIEL9953804499538044 3345 HILL DR, DULUTH GA 30096*RECKLESS DRIVING$939.25SBDuluth PoliceCharges
02/07/2016 19:1302/07/2016 23:09FLORES-VENTURABORISARIEL9953804499538044 3345 HILL DR, DULUTH GA 30096IMPROPER/ERRATIC LANE CHANGE$131SBDuluth PoliceCharges
02/07/2016 19:02DOLOPAYEPRINCEKOKEH9915919199159191 150 TRACE TER, STONE MOUNTAIN GA 30083*DRIVING WHILE LIC.SUSP/REVOKED$803SBLawrenceville PoliceCharges
02/07/2016 19:02DOLOPAYEPRINCEKOKEH9915919199159191 150 TRACE TER, STONE MOUNTAIN GA 30083OPEN CONTAINER VIOL(DRIVER ONLY)$333SBLawrenceville PoliceCharges
02/07/2016 18:3502/08/2016 02:37GIAMBRONEROBERTLOUIS9945813899458138 1643 ENGLE DR, MACON GA 31211$Gwinnett County PoliceCharges
02/07/2016 18:20JIMENEZJUANERNESTO9953345199533451 2889 PARTAIN RD NW, MONROE GA 30656@ * AGGRAVATED ASSAULT$0NBGwinnett County PoliceCharges
02/07/2016 18:20JIMENEZJUANERNESTO9953345199533451 2889 PARTAIN RD NW, MONROE GA 30656*LESS THAN AN OZ OF MARIJ.$2950SBGwinnett County PoliceCharges
02/07/2016 18:12JACKSONDIAJARASHA9953804399538043 3151 CHESTERFIELD CT, SNELLVILLE GA 30039@ * THEFT BY SHOPLIFTING$2400SBGwinnett County PoliceCharges
02/07/2016 17:2902/08/2016 01:32XIONGBIA9952391599523915 1296 MISTWATER TRCE, LAWRENCEVILLE GA 30043@ * THEFT BY SHOPLIFTING$1300SBGwinnett County PoliceCharges
02/07/2016 17:2502/07/2016 21:50WASHINGTONWILLIAMBOOKER9953277799532777 3133 NORMANDY RIDGE, LAWRENCEVILLE GA 30044@ * SIMPLE BATTERY$1300SBGwinnett County PoliceCharges
02/07/2016 16:5602/07/2016 22:07COLLINSLYLTONANDREW9916846699168466 5211 HUGH HOWELL RD, STONE MOUNTAIN GA 30087DISORDERLY CONDUCT$420CBLilburn PoliceCharges
02/07/2016 16:5602/07/2016 22:07COLLINSLYLTONANDREW9916846699168466 5211 HUGH HOWELL RD, STONE MOUNTAIN GA 30087FAILURE TO APPEAR$865CBLilburn PoliceCharges
02/07/2016 16:4302/08/2016 11:35TORRENCECOREYDEONTE9953804199538041 440 BRIDGE PORT PLACE, MONROE GA 30655FAILURE TO APPEAR$1094CBGwinnett County PoliceCharges
02/07/2016 16:3902/08/2016 01:01ACORDMORRISRAY9953804099538040 125 OAK HOLLOW RD, NEWBERRY SC 29108*DRIVING WHILE LICENSE SUSPENDED$1207SBSuwanee PoliceCharges
02/07/2016 16:3902/08/2016 01:01ACORDMORRISRAY9953804099538040 125 OAK HOLLOW RD, NEWBERRY SC 29108SEATBELT VIOLATION >18$15SBSuwanee PoliceCharges
02/07/2016 16:2702/08/2016 18:14ANDERSONCHESTEREARL9951394199513941 2491 KELMAN PL, DACULA GA 30019@ * THEFT BY SHOPLIFTING$2950SBGwinnett County SheriffCharges
02/07/2016 16:2702/08/2016 18:14ANDERSONCHESTEREARL9951394199513941 2491 KELMAN PL, DACULA GA 30019@ * SIMPLE BATTERY$2950SBGwinnett County SheriffCharges
02/07/2016 16:22RAMIREZFRANCISCOG9947300099473000 437 KING ARNOLD ST, ATLANTA GA 30354@ * TERRORISTIC THREATS & ACTS$0NBGwinnett County PoliceCharges
02/07/2016 16:22RAMIREZFRANCISCOG9947300099473000 437 KING ARNOLD ST, ATLANTA GA 30354* POSS OF A WEAPON DURING A CRIME$0NBGwinnett County PoliceCharges
02/07/2016 16:22RAMIREZFRANCISCOG9947300099473000 437 KING ARNOLD ST, ATLANTA GA 30354HOLD FOR IMMIGRATION$0NBGwinnett County PoliceCharges
02/07/2016 15:1902/07/2016 19:20PINEDA-MENDOZAFREDDY9953803999538039 890 MEADOW WALK AVE, LAWRENCEVILLE GA 30044THEFT BY SHOPLIFTING$420CBGwinnett County PoliceCharges
02/07/2016 13:2502/07/2016 19:50DUNKLEYROSE9953803699538036 5230 VALLEY DR, CUMMING GA 30041* FORGERY-1ST DEGREE$2950SBGwinnett County SheriffCharges
02/07/2016 13:1502/07/2016 22:30FARMEROMARSHARIEF9953330499533304 3561 SPRING CREEK CIR, SNELLVILLE GA 30039*LIGHT REDUCING MAT.AFFIXED TO WINDOW$117SBSnellville PoliceCharges
02/07/2016 13:1502/07/2016 22:30FARMEROMARSHARIEF9953330499533304 3561 SPRING CREEK CIR, SNELLVILLE GA 30039NO TAG$89SBSnellville PoliceCharges
02/07/2016 13:1502/07/2016 22:30FARMEROMARSHARIEF9953330499533304 3561 SPRING CREEK CIR, SNELLVILLE GA 30039*SUSPENDED/REVOKED LIC$816SBSnellville PoliceCharges
02/07/2016 12:5602/07/2016 22:51COLBERTQUINTAVISDAVON9953803599538035 3282 PRENNIAL LN, SNELLVILLE GA 30039@ * SIMPLE ASSAULT$2400SBGwinnett County PoliceCharges
02/07/2016 11:31RICHARDSONKOTYLARENZ9949151099491510 2264 TAYLORS MILL RD, FORT VALLEY GA 31030* VIOLATION OF PROBATION$0NBGwinnett County SheriffCharges
02/07/2016 11:26FLETCHERJERRONTAYFASHONDO9927302099273020 23 DOROTHY ST SE, ATLANTA GA 30315@ * SIMPLE BATTERY$5700SBGwinnett County SheriffCharges
02/07/2016 11:26FLETCHERJERRONTAYFASHONDO9927302099273020 23 DOROTHY ST SE, ATLANTA GA 30315* INTERFER. WITH CALL FOR EMER. ASSIST.$3500SBGwinnett County SheriffCharges
02/07/2016 11:26FLETCHERJERRONTAYFASHONDO9927302099273020 23 DOROTHY ST SE, ATLANTA GA 30315* CRIMINAL TRESPASS$5700SBGwinnett County SheriffCharges
02/07/2016 11:2202/07/2016 19:59FLOWERSGERARDOJONATHAN9949204499492044 3104 SARDIS RD, GAINESVILLE GA 30506FAILURE TO APPEAR$805CBGwinnett County SheriffCharges
02/07/2016 11:19MCGRAWRUSSELLKNOWLE9953803499538034 120 N CREEK DR, TALKING ROCK GA 30175@ * THEFT BY DECEPTION$2950SBGwinnett County SheriffCharges
02/07/2016 11:19MCGRAWRUSSELLKNOWLE9953803499538034 120 N CREEK DR, TALKING ROCK GA 30175@ * THEFT BY CONVERSION$2950SBGwinnett County SheriffCharges
02/07/2016 11:1102/08/2016 16:42AYERSJOELEWIS9949004399490043 1079 BLACK DR, GAINESVILLE GA 30507FAILURE TO APPEAR$901CBGwinnett County SheriffCharges
02/07/2016 11:0102/07/2016 16:50BAYLORTREVAILDA'VON9953803399538033 3057 DESTIN CIR, SNELLVILLE GA 30078*SUSPENDED/REVOKED LIC$816CBSnellville PoliceCharges
02/07/2016 09:4602/07/2016 21:09CORREAHIPOLITOALEJANDRO9953803299538032 2401 PARK CROSSING WAY, LILBURN GA 30047*NO DRIVERS LICENSE$705CBGwinnett County PoliceCharges
02/07/2016 09:4602/07/2016 21:09CORREAHIPOLITOALEJANDRO9953803299538032 2401 PARK CROSSING WAY, LILBURN GA 30047OPERATING VEH WITH SUSP/CANC/REV REGISTR$705CBGwinnett County PoliceCharges
02/07/2016 08:35PEREZ-HINOJOSAALEJANDRO9923874599238745 512 IVY CHASE LN, PEACHTREE CORNERS GA 30092HOLD FOR OTHER AGENCY$0NBNorcross PoliceCharges
02/07/2016 08:35PEREZ-HINOJOSAALEJANDRO9923874599238745 512 IVY CHASE LN, PEACHTREE CORNERS GA 30092*NO VALID LICENSE$860SBNorcross PoliceCharges
02/07/2016 08:35PEREZ-HINOJOSAALEJANDRO9923874599238745 512 IVY CHASE LN, PEACHTREE CORNERS GA 30092SPEEDING 19-23 OVER$360SBNorcross PoliceCharges
02/07/2016 08:35PEREZ-HINOJOSAALEJANDRO9923874599238745 512 IVY CHASE LN, PEACHTREE CORNERS GA 30092FAILURE TO APPEAR$175CBNorcross PoliceCharges
02/07/2016 07:56AGUIRRESERGIOE9953803099538030 5728 EVERGLADES TRL, NORCROSS GA 30071SPEEDING$250SBGwinnett County PoliceCharges
02/07/2016 07:56AGUIRRESERGIOE9953803099538030 5728 EVERGLADES TRL, NORCROSS GA 30071* USE OF LICENSE PLATE TO CONCEAL I.D.$705SBGwinnett County PoliceCharges
02/07/2016 07:56AGUIRRESERGIOE9953803099538030 5728 EVERGLADES TRL, NORCROSS GA 30071*NO VALID DRIVER'S LICENSE$0NBGwinnett County PoliceCharges
02/07/2016 07:56AGUIRRESERGIOE9953803099538030 5728 EVERGLADES TRL, NORCROSS GA 30071*NO VALID DRIVER'S LICENSE$705SBGwinnett County PoliceCharges
02/07/2016 07:40RHODESLARRY9953802999538029 1328 WHITE OAK ST SE, CONYERS GA 30013@ * ARMED ROBBERY$0NBPrisoner Transport ServicesCharges
02/07/2016 07:40RHODESLARRY9953802999538029 1328 WHITE OAK ST SE, CONYERS GA 30013@ * ARMED ROBBERY$0NBPrisoner Transport ServicesCharges
02/07/2016 07:3802/07/2016 19:23MUNOZ MUNOZAARONIVAN9953802899538028 3708 N GODDARD RD, LITHONIA GA 30038*DUI ALCOHOL$1230SBLawrenceville PoliceCharges
02/07/2016 07:3802/07/2016 19:23MUNOZ MUNOZAARONIVAN9953802899538028 3708 N GODDARD RD, LITHONIA GA 30038RECKLESS DRIVING$633SBLawrenceville PoliceCharges
02/07/2016 06:5702/07/2016 14:53TORRESCARMENELENA9953802799538027 122C N RIDGE DR, ASHEVILLE NC 28804* DUI-MORE THAN 0.10%BLOOD ALCOHOL$2006SBGwinnett County PoliceCharges
02/07/2016 06:5702/07/2016 14:53TORRESCARMENELENA9953802799538027 122C N RIDGE DR, ASHEVILLE NC 28804FAILURE TO MAINTAIN LANE$96SBGwinnett County PoliceCharges
02/07/2016 06:5702/07/2016 14:53TORRESCARMENELENA9953802799538027 122C N RIDGE DR, ASHEVILLE NC 28804*VGCSA OF C/S$2950SBGwinnett County PoliceCharges
02/07/2016 06:39CARTERSHONDLEDWIGHT9953802699538026APT 2601 1049 POWERS FERRY RD SE, MARIETTA GA 30067@ * ARMED ROBBERY$0NBDuluth PoliceCharges
02/07/2016 06:39CARTERSHONDLEDWIGHT9953802699538026APT 2601 1049 POWERS FERRY RD SE, MARIETTA GA 30067@ * AGGRAVATED ASSAULT$0NBDuluth PoliceCharges
02/07/2016 06:39CARTERSHONDLEDWIGHT9953802699538026APT 2601 1049 POWERS FERRY RD SE, MARIETTA GA 30067@ * KIDNAPPING$0NBDuluth PoliceCharges
02/07/2016 06:39CARTERSHONDLEDWIGHT9953802699538026APT 2601 1049 POWERS FERRY RD SE, MARIETTA GA 30067* INTERFER. WITH CALL FOR EMER. ASSIST.$0NBDuluth PoliceCharges
02/07/2016 05:5502/07/2016 17:27VILLATORO-AYALAORLINNOEL9953802599538025 278 WINCHESTER PL, fairview heights IL 62208FAILURE TO YIELD$96CBGwinnett County PoliceCharges
02/07/2016 05:5502/07/2016 17:27VILLATORO-AYALAORLINNOEL9953802599538025 278 WINCHESTER PL, fairview heights IL 62208*NO VALID DRIVER'S LICENSE$705CBGwinnett County PoliceCharges
02/07/2016 05:45HERNANDEZ-SALAZARCHRISTIAN9953802399538024 535 HOLLY RIDGE DR APT B, LILBURN GA 30047SPEEDING$155CBGwinnett County PoliceCharges
02/07/2016 05:45HERNANDEZ-SALAZARCHRISTIAN9953802399538024 535 HOLLY RIDGE DR APT B, LILBURN GA 30047IMPROPER LANE CHANGE$155SBGwinnett County PoliceCharges
02/07/2016 05:45HERNANDEZ-SALAZARCHRISTIAN9953802399538024 535 HOLLY RIDGE DR APT B, LILBURN GA 30047OUT OF STATE LIC CHANGED W/I 30 DAYS$155SBGwinnett County PoliceCharges
02/07/2016 05:45HERNANDEZ-SALAZARCHRISTIAN9953802399538024 535 HOLLY RIDGE DR APT B, LILBURN GA 30047*DUI--ALCOHOL$1266SBGwinnett County PoliceCharges
02/07/2016 05:45HERNANDEZ-SALAZARCHRISTIAN9953802399538024 535 HOLLY RIDGE DR APT B, LILBURN GA 30047OPEN CONTAINER$295SBGwinnett County PoliceCharges
02/07/2016 05:45HERNANDEZ-SALAZARCHRISTIAN9953802399538024 535 HOLLY RIDGE DR APT B, LILBURN GA 30047*NOT LICENSED TO DRIVE$715SBGwinnett County PoliceCharges
02/07/2016 05:31ALEXANDERCAMERONEMMANUEL9953802299538022 12136 GREWOLF LANE, CONVINGTON GA 30014SPEEDING 11-15 OVER$116.5SBSnellville PoliceCharges
02/07/2016 05:31ALEXANDERCAMERONEMMANUEL9953802299538022 12136 GREWOLF LANE, CONVINGTON GA 30014*LIGHT REDUCING MAT.AFFIXED TO WINDOW$117SBSnellville PoliceCharges
02/07/2016 05:31ALEXANDERCAMERONEMMANUEL9953802299538022 12136 GREWOLF LANE, CONVINGTON GA 30014*SUSPENDED/REVOKED LIC$816SBSnellville PoliceCharges
02/07/2016 04:5602/07/2016 16:22DESALEGNWEGENEWORKU9953802199538021 225 RIDGE CREEK DR, CLARKSTON GA 30021FAILURE TO MAINTAIN LANE$96SBGwinnett County PoliceCharges
02/07/2016 04:5602/07/2016 16:22DESALEGNWEGENEWORKU9953802199538021 225 RIDGE CREEK DR, CLARKSTON GA 30021MAKING IMPROPER U-TURN$68SBGwinnett County PoliceCharges
02/07/2016 04:5602/07/2016 16:22DESALEGNWEGENEWORKU9953802199538021 225 RIDGE CREEK DR, CLARKSTON GA 30021* DUI - DRUGS/ALCOHOL$2006SBGwinnett County PoliceCharges
02/07/2016 04:4302/07/2016 16:52FRYEJAMESEDWARD9948686799486867 550 DUNAGAN DR, LAWRENCEVILLE GA 30045@ * SIMPLE BATTERY$1850SBGwinnett County PoliceCharges
02/07/2016 04:4102/08/2016 16:48KEITHCEDRICCERON9953802099538020 401 HARVICK CIR, STOCKBRIDGE GA 30281UNSAFE U-TURN$96SBGwinnett County PoliceCharges
02/07/2016 04:4102/08/2016 16:48KEITHCEDRICCERON9953802099538020 401 HARVICK CIR, STOCKBRIDGE GA 30281OPERATING VEHICLE WHILE TEXT MESSAGING$150SBGwinnett County PoliceCharges
02/07/2016 04:4102/08/2016 16:48KEITHCEDRICCERON9953802099538020 401 HARVICK CIR, STOCKBRIDGE GA 30281M/V WRONG SIDE OF ROAD$96SBGwinnett County PoliceCharges
02/07/2016 04:4102/08/2016 16:48KEITHCEDRICCERON9953802099538020 401 HARVICK CIR, STOCKBRIDGE GA 30281POSS/PURCHASE ALCOHOL UNDER 21$140SBGwinnett County PoliceCharges
02/07/2016 04:4102/08/2016 16:48KEITHCEDRICCERON9953802099538020 401 HARVICK CIR, STOCKBRIDGE GA 30281* DUI-ALCOHOL$2006SBGwinnett County PoliceCharges
02/07/2016 04:4102/08/2016 16:48KEITHCEDRICCERON9953802099538020 401 HARVICK CIR, STOCKBRIDGE GA 30281UNSAFE LANE CHANGE$96SBGwinnett County PoliceCharges
02/07/2016 04:0802/07/2016 08:53DIGGSJONATHANFORD9945351899453518 207 TREE RIDGE PKWY, ALPHARETTA GA 30022Failure to Appear$620CBNorcross PoliceCharges
02/07/2016 03:58THOMPSONJONATHONLEE9944813099448130 1550 MCCONELL RD, GRAYSON GA 30017DUI-ALCOHOL$969.5SBSnellville PoliceCharges
02/07/2016 03:58THOMPSONJONATHONLEE9944813099448130 1550 MCCONELL RD, GRAYSON GA 30017DUI-LESS SAFE$969.5SBSnellville PoliceCharges
02/07/2016 03:46RUIZ-CARBAJALJORGE9953801999538019 4900 RIVER WOOD LANE, ROSWELL GA 30075OPEN CONTAINER LAW$299SBGwinnett County PoliceCharges
02/07/2016 03:46RUIZ-CARBAJALJORGE9953801999538019 4900 RIVER WOOD LANE, ROSWELL GA 30075*NO VALID DRIVER'S LICENSE$705SBGwinnett County PoliceCharges
02/07/2016 03:46RUIZ-CARBAJALJORGE9953801999538019 4900 RIVER WOOD LANE, ROSWELL GA 30075HOLD FOR IMMIGRATION$0NBGwinnett County PoliceCharges
02/07/2016 03:46RUIZ-CARBAJALJORGE9953801999538019 4900 RIVER WOOD LANE, ROSWELL GA 30075*HIT AND RUN$420SBGwinnett County PoliceCharges
02/07/2016 03:3802/07/2016 08:56VANASPERENDAVIDERIC9953801899538018 1042 STONE MILL WAY, LAWRENCEVILLE GA 30046FAILURE TO YIELD$96SBGwinnett County PoliceCharges
02/07/2016 03:3802/07/2016 08:56VANASPERENDAVIDERIC9953801899538018 1042 STONE MILL WAY, LAWRENCEVILLE GA 30046* DUI-ALCOHOL$2006SBGwinnett County PoliceCharges
02/07/2016 03:3202/07/2016 16:20ENCINIASEDWARDANTHONY9953801799538017 1071 CHISOLM WAY NW, LILBURN GA 30047* DUI - DRUGS/ALCOHOL$2006CBGwinnett County PoliceCharges
02/07/2016 03:0702/07/2016 06:28MORRISONALTONDWIGHT9953801699538016 495 MULBERRY PARK CIR, DACULA GA 30019SPEEDING$145SBGwinnett County PoliceCharges
02/07/2016 03:0702/07/2016 06:28MORRISONALTONDWIGHT9953801699538016 495 MULBERRY PARK CIR, DACULA GA 30019DRIVING WITHOUT HEADLIGHTS$96SBGwinnett County PoliceCharges
02/07/2016 03:0702/07/2016 06:28MORRISONALTONDWIGHT9953801699538016 495 MULBERRY PARK CIR, DACULA GA 30019OPEN CONTAINER LAW$299SBGwinnett County PoliceCharges
02/07/2016 03:0702/07/2016 06:28MORRISONALTONDWIGHT9953801699538016 495 MULBERRY PARK CIR, DACULA GA 30019FAILURE TO MAINTAIN LANE$96SBGwinnett County PoliceCharges
02/07/2016 03:0702/07/2016 06:28MORRISONALTONDWIGHT9953801699538016 495 MULBERRY PARK CIR, DACULA GA 30019* DUI - DRUGS/ALCOHOL$2006SBGwinnett County PoliceCharges
02/07/2016 03:0702/07/2016 06:28MORRISONALTONDWIGHT9953801699538016 495 MULBERRY PARK CIR, DACULA GA 30019FAIL TO CHANGE ADDRESS/NAME ON DL$96SBGwinnett County PoliceCharges
02/07/2016 03:06ELLISONEVANFRANCIS9941966999419669 4790 NANTUCKET DR SW, LILBURN GA 30047*OBSTRUCTION OF OFFICER$4050SBGwinnett County SheriffCharges
02/07/2016 03:06ELLISONEVANFRANCIS9941966999419669 4790 NANTUCKET DR SW, LILBURN GA 30047*OBSTRUCTION OF OFFICER$4050SBGwinnett County SheriffCharges
02/07/2016 03:06ELLISONEVANFRANCIS9941966999419669 4790 NANTUCKET DR SW, LILBURN GA 30047* DISORDERLY CONDUCT$4050SBGwinnett County SheriffCharges
02/07/2016 03:06ELLISONEVANFRANCIS9941966999419669 4790 NANTUCKET DR SW, LILBURN GA 30047*LESS THAN AN OZ OF MARIJ.$1300SBGwinnett County SheriffCharges
02/07/2016 03:06ELLISONEVANFRANCIS9941966999419669 4790 NANTUCKET DR SW, LILBURN GA 30047@ * SIMPLE BATTERY$4050SBGwinnett County SheriffCharges
02/07/2016 03:06ELLISONEVANFRANCIS9941966999419669 4790 NANTUCKET DR SW, LILBURN GA 30047* POSS OF DRUG RELATED OBJECTS$1300SBGwinnett County SheriffCharges
02/07/2016 02:5002/07/2016 11:06DUMKESTEVENBEN9902458699024586 3074 MISTY VIEW TRAIL, LILBURN GA 30047DIS COND - CONS OF ALC AT BUSN$140SBGwinnett County PoliceCharges
02/07/2016 02:2602/07/2016 06:45KRASNOKUTSKYMICHAEL9953801599538015 142 ELK GROVE DR, AUBURN GA 30011* DUI - DRUGS/ALCOHOL$2006SBGwinnett County PoliceCharges
02/07/2016 02:2602/07/2016 06:45KRASNOKUTSKYMICHAEL9953801599538015 142 ELK GROVE DR, AUBURN GA 30011SPEEDING$250SBGwinnett County PoliceCharges
02/07/2016 01:58WRIGHTKYJONKIMARI9953801499538014 2660WINDSOR LN, NORCROSS GA 30093Failure to Appear$1060CBNorcross PoliceCharges
02/07/2016 01:5302/07/2016 08:59FLORESALEXISURIEL9949037399490373 2560 BINGHABTON LN, LAWRENCEVILLE GA 30044*DUI .02 UNDER 21$2006SBGwinnett County PoliceCharges
02/07/2016 01:5302/07/2016 08:59FLORESALEXISURIEL9949037399490373 2560 BINGHABTON LN, LAWRENCEVILLE GA 30044* DRIVING WHILE LIC SUSP OR REVOKED$705SBGwinnett County PoliceCharges
02/07/2016 01:5302/07/2016 08:59FLORESALEXISURIEL9949037399490373 2560 BINGHABTON LN, LAWRENCEVILLE GA 30044UNSAFE LANE CHANGE$96SBGwinnett County PoliceCharges
02/07/2016 01:09BELLTAVONCEJON9923288999497386 1687 SUMMER CREEK, LOGANVILLE GA 30052* VIOLATION OF PROBATION$0NBSnellville PoliceCharges
02/07/2016 01:0802/07/2016 08:59CORLEYTIFFANYCHIFFAN9953801399538013APT C 867 WILLOWGATE CIR NW, LILBURN GA 30047FAILURE TO OBEY POLICE/PEACE OFFICER$152SBGwinnett County PoliceCharges
02/07/2016 01:0802/07/2016 08:59CORLEYTIFFANYCHIFFAN9953801399538013APT C 867 WILLOWGATE CIR NW, LILBURN GA 30047* DUI - DRUGS/ALCOHOL$2006SBGwinnett County PoliceCharges
02/07/2016 01:01CUEVAS-GONZALEZESAUL9953801299538012 6501 E WINDSOR LN, NORCROSS GA 30093@ * BATTERY$1850SBGwinnett County PoliceCharges
02/07/2016 01:01CUEVAS-GONZALEZESAUL9953801299538012 6501 E WINDSOR LN, NORCROSS GA 30093CRUELTY TO CHILDREN-3RD DEGREE$1850SBGwinnett County PoliceCharges
02/07/2016 01:01CUEVAS-GONZALEZESAUL9953801299538012 6501 E WINDSOR LN, NORCROSS GA 30093CRUELTY TO CHILDREN-3RD DEGREE$1850SBGwinnett County PoliceCharges
02/07/2016 01:01CUEVAS-GONZALEZESAUL9953801299538012 6501 E WINDSOR LN, NORCROSS GA 30093HOLD FOR IMMIGRATION$0NBGwinnett County PoliceCharges
02/07/2016 00:59BLANCOJULIOR9953801199538011 1310 PARK CROSSING WAY, NORCROSS GA 30093@ * AGGRAVATED ASSAULT$16700SBGwinnett County PoliceCharges
02/07/2016 00:39WEBBJAMESJARIAN9951868899518688 3171 TERRACE CT APT S, NORCROSS GA 30092*DISORDERLY CONDUCT$140SBGwinnett County PoliceCharges
02/07/2016 00:39WEBBJAMESJARIAN9951868899518688 3171 TERRACE CT APT S, NORCROSS GA 30092* VIOLATION OF PROBATION$0NBGwinnett County PoliceCharges
02/07/2016 00:3202/07/2016 02:41RILEYJUSTINFERRELL9945817999458179APT O141 2320 SARAH CT, NORCROSS GA 30093*DRIVING WHILE LIC SUSP/REV$715SBLilburn PoliceCharges
02/07/2016 00:0702/07/2016 06:46MOONEYKYLEBRANDON9950278499502784 1829 AUSTINS POINTE DR, LAWRENCEVILLE GA 30043FAILURE TO SIGNAL$96SBGwinnett County PoliceCharges
02/07/2016 00:0702/07/2016 06:46MOONEYKYLEBRANDON9950278499502784 1829 AUSTINS POINTE DR, LAWRENCEVILLE GA 30043* DRIVING WHILE LICENSE WITHDRAWN$705SBGwinnett County PoliceCharges